sensor_id;sensor_type;location;lat;lon;timestamp;P1;durP1;ratioP1;P2;durP2;ratioP2
38779;SDS011;29273;49.962;9.768;2023-05-10T00:02:07;0.88;;;0.82;;
38779;SDS011;29273;49.962;9.768;2023-05-10T00:04:33;0.90;;;0.57;;
38779;SDS011;29273;49.962;9.768;2023-05-10T00:06:58;0.70;;;0.70;;
38779;SDS011;29273;49.962;9.768;2023-05-10T00:09:24;0.82;;;0.60;;
38779;SDS011;29273;49.962;9.768;2023-05-10T00:11:49;1.63;;;0.70;;
38779;SDS011;29273;49.962;9.768;2023-05-10T00:14:15;0.68;;;0.60;;
38779;SDS011;29273;49.962;9.768;2023-05-10T00:16:40;0.60;;;0.60;;
38779;SDS011;29273;49.962;9.768;2023-05-10T00:19:06;0.77;;;0.60;;
38779;SDS011;29273;49.962;9.768;2023-05-10T00:21:31;0.60;;;0.60;;
38779;SDS011;29273;49.962;9.768;2023-05-10T00:23:58;0.73;;;0.60;;
38779;SDS011;29273;49.962;9.768;2023-05-10T00:26:24;1.27;;;0.68;;
38779;SDS011;29273;49.962;9.768;2023-05-10T00:28:53;1.10;;;0.70;;
38779;SDS011;29273;49.962;9.768;2023-05-10T00:31:18;0.60;;;0.60;;
38779;SDS011;29273;49.962;9.768;2023-05-10T00:33:43;0.70;;;0.65;;
38779;SDS011;29273;49.962;9.768;2023-05-10T00:36:09;0.60;;;0.60;;
38779;SDS011;29273;49.962;9.768;2023-05-10T00:38:35;1.17;;;0.80;;
38779;SDS011;29273;49.962;9.768;2023-05-10T00:41:01;1.33;;;0.70;;
38779;SDS011;29273;49.962;9.768;2023-05-10T00:43:30;0.60;;;0.60;;
38779;SDS011;29273;49.962;9.768;2023-05-10T00:45:55;1.10;;;0.70;;
38779;SDS011;29273;49.962;9.768;2023-05-10T00:48:21;1.23;;;0.65;;
38779;SDS011;29273;49.962;9.768;2023-05-10T00:50:47;0.70;;;0.65;;
38779;SDS011;29273;49.962;9.768;2023-05-10T00:53:13;0.93;;;0.60;;
38779;SDS011;29273;49.962;9.768;2023-05-10T00:55:39;1.00;;;0.50;;
38779;SDS011;29273;49.962;9.768;2023-05-10T00:58:05;1.15;;;0.63;;
38779;SDS011;29273;49.962;9.768;2023-05-10T01:00:32;1.13;;;0.65;;
38779;SDS011;29273;49.962;9.768;2023-05-10T01:02:58;1.30;;;0.60;;
38779;SDS011;29273;49.962;9.768;2023-05-10T01:05:24;0.40;;;0.40;;
38779;SDS011;29273;49.962;9.768;2023-05-10T01:07:50;0.68;;;0.60;;
38779;SDS011;29273;49.962;9.768;2023-05-10T01:10:16;0.50;;;0.50;;
38779;SDS011;29273;49.962;9.768;2023-05-10T01:12:42;0.60;;;0.60;;
38779;SDS011;29273;49.962;9.768;2023-05-10T01:15:10;0.47;;;0.40;;
38779;SDS011;29273;49.962;9.768;2023-05-10T01:17:37;0.73;;;0.40;;
38779;SDS011;29273;49.962;9.768;2023-05-10T01:20:04;1.30;;;0.50;;
38779;SDS011;29273;49.962;9.768;2023-05-10T01:25:26;0.50;;;0.50;;
38779;SDS011;29273;49.962;9.768;2023-05-10T01:33:41;0.60;;;0.50;;
38779;SDS011;29273;49.962;9.768;2023-05-10T01:39:17;0.55;;;0.40;;
38779;SDS011;29273;49.962;9.768;2023-05-10T01:41:51;0.43;;;0.40;;
38779;SDS011;29273;49.962;9.768;2023-05-10T01:47:17;0.30;;;0.30;;
38779;SDS011;29273;49.962;9.768;2023-05-10T01:49:50;0.68;;;0.30;;
38779;SDS011;29273;49.962;9.768;2023-05-10T01:52:18;0.20;;;0.20;;
38779;SDS011;29273;49.962;9.768;2023-05-10T01:54:49;0.20;;;0.20;;
38779;SDS011;29273;49.962;9.768;2023-05-10T01:57:19;0.20;;;0.20;;
38779;SDS011;29273;49.962;9.768;2023-05-10T01:59:47;0.20;;;0.20;;
38779;SDS011;29273;49.962;9.768;2023-05-10T02:02:15;0.90;;;0.20;;
38779;SDS011;29273;49.962;9.768;2023-05-10T02:04:43;0.20;;;0.20;;
38779;SDS011;29273;49.962;9.768;2023-05-10T02:07:10;0.20;;;0.20;;
38779;SDS011;29273;49.962;9.768;2023-05-10T02:09:37;0.20;;;0.20;;
38779;SDS011;29273;49.962;9.768;2023-05-10T02:12:03;0.10;;;0.10;;
38779;SDS011;29273;49.962;9.768;2023-05-10T02:14:32;0.52;;;0.20;;
38779;SDS011;29273;49.962;9.768;2023-05-10T02:17:02;0.20;;;0.20;;
38779;SDS011;29273;49.962;9.768;2023-05-10T02:19:31;0.10;;;0.10;;
38779;SDS011;29273;49.962;9.768;2023-05-10T02:21:58;0.50;;;0.30;;
38779;SDS011;29273;49.962;9.768;2023-05-10T02:24:26;0.47;;;0.20;;
38779;SDS011;29273;49.962;9.768;2023-05-10T02:26:53;0.13;;;0.13;;
38779;SDS011;29273;49.962;9.768;2023-05-10T02:29:22;0.30;;;0.10;;
38779;SDS011;29273;49.962;9.768;2023-05-10T02:31:51;0.22;;;0.17;;
38779;SDS011;29273;49.962;9.768;2023-05-10T02:34:17;0.10;;;0.10;;
38779;SDS011;29273;49.962;9.768;2023-05-10T02:36:45;0.40;;;0.20;;
38779;SDS011;29273;49.962;9.768;2023-05-10T02:39:11;1.10;;;0.20;;
38779;SDS011;29273;49.962;9.768;2023-05-10T02:41:40;0.10;;;0.10;;
38779;SDS011;29273;49.962;9.768;2023-05-10T02:44:07;0.15;;;0.15;;
38779;SDS011;29273;49.962;9.768;2023-05-10T02:46:35;0.40;;;0.20;;
38779;SDS011;29273;49.962;9.768;2023-05-10T02:49:02;0.10;;;0.10;;
38779;SDS011;29273;49.962;9.768;2023-05-10T02:51:30;0.15;;;0.15;;
38779;SDS011;29273;49.962;9.768;2023-05-10T02:54:00;0.10;;;0.10;;
38779;SDS011;29273;49.962;9.768;2023-05-10T02:56:33;0.47;;;0.20;;
38779;SDS011;29273;49.962;9.768;2023-05-10T02:59:01;0.10;;;0.10;;
38779;SDS011;29273;49.962;9.768;2023-05-10T03:01:27;0.10;;;0.10;;
38779;SDS011;29273;49.962;9.768;2023-05-10T03:03:52;0.10;;;0.10;;
38779;SDS011;29273;49.962;9.768;2023-05-10T03:06:18;0.20;;;0.20;;
38779;SDS011;29273;49.962;9.768;2023-05-10T03:08:43;0.10;;;0.10;;
38779;SDS011;29273;49.962;9.768;2023-05-10T03:11:28;0.10;;;0.10;;
38779;SDS011;29273;49.962;9.768;2023-05-10T03:19:56;0.10;;;0.10;;
38779;SDS011;29273;49.962;9.768;2023-05-10T03:22:36;0.40;;;0.20;;
38779;SDS011;29273;49.962;9.768;2023-05-10T03:25:04;0.20;;;0.20;;
38779;SDS011;29273;49.962;9.768;2023-05-10T03:27:32;0.63;;;0.20;;
38779;SDS011;29273;49.962;9.768;2023-05-10T03:30:01;0.10;;;0.10;;
38779;SDS011;29273;49.962;9.768;2023-05-10T03:32:31;0.17;;;0.10;;
38779;SDS011;29273;49.962;9.768;2023-05-10T03:34:58;0.20;;;0.20;;
38779;SDS011;29273;49.962;9.768;2023-05-10T03:37:24;0.25;;;0.10;;
38779;SDS011;29273;49.962;9.768;2023-05-10T03:39:49;0.10;;;0.10;;
38779;SDS011;29273;49.962;9.768;2023-05-10T03:42:15;0.10;;;0.10;;
38779;SDS011;29273;49.962;9.768;2023-05-10T03:44:43;0.52;;;0.20;;
38779;SDS011;29273;49.962;9.768;2023-05-10T03:47:08;0.20;;;0.17;;
38779;SDS011;29273;49.962;9.768;2023-05-10T03:49:34;0.38;;;0.20;;
38779;SDS011;29273;49.962;9.768;2023-05-10T03:52:00;0.10;;;0.10;;
38779;SDS011;29273;49.962;9.768;2023-05-10T03:54:26;0.10;;;0.10;;
38779;SDS011;29273;49.962;9.768;2023-05-10T03:56:51;0.20;;;0.20;;
38779;SDS011;29273;49.962;9.768;2023-05-10T03:59:18;0.10;;;0.10;;
38779;SDS011;29273;49.962;9.768;2023-05-10T04:01:44;0.20;;;0.20;;
38779;SDS011;29273;49.962;9.768;2023-05-10T04:04:09;0.10;;;0.10;;
38779;SDS011;29273;49.962;9.768;2023-05-10T04:06:35;0.10;;;0.10;;
38779;SDS011;29273;49.962;9.768;2023-05-10T04:09:00;0.10;;;0.10;;
38779;SDS011;29273;49.962;9.768;2023-05-10T04:11:29;0.52;;;0.20;;
38779;SDS011;29273;49.962;9.768;2023-05-10T04:13:54;0.10;;;0.10;;
38779;SDS011;29273;49.962;9.768;2023-05-10T04:16:20;0.20;;;0.10;;
38779;SDS011;29273;49.962;9.768;2023-05-10T04:18:45;0.15;;;0.15;;
38779;SDS011;29273;49.962;9.768;2023-05-10T04:21:14;0.10;;;0.10;;
38779;SDS011;29273;49.962;9.768;2023-05-10T04:23:40;0.10;;;0.10;;
38779;SDS011;29273;49.962;9.768;2023-05-10T04:26:05;1.55;;;0.15;;
38779;SDS011;29273;49.962;9.768;2023-05-10T04:28:31;0.25;;;0.20;;
38779;SDS011;29273;49.962;9.768;2023-05-10T04:31:03;0.20;;;0.20;;
38779;SDS011;29273;49.962;9.768;2023-05-10T04:33:30;0.65;;;0.20;;
38779;SDS011;29273;49.962;9.768;2023-05-10T04:35:56;1.00;;;0.20;;
38779;SDS011;29273;49.962;9.768;2023-05-10T04:38:21;0.40;;;0.20;;
38779;SDS011;29273;49.962;9.768;2023-05-10T04:40:47;0.20;;;0.20;;
38779;SDS011;29273;49.962;9.768;2023-05-10T04:43:12;0.20;;;0.20;;
38779;SDS011;29273;49.962;9.768;2023-05-10T04:45:38;0.65;;;0.20;;
38779;SDS011;29273;49.962;9.768;2023-05-10T04:48:03;0.20;;;0.20;;
38779;SDS011;29273;49.962;9.768;2023-05-10T04:50:29;0.20;;;0.20;;
38779;SDS011;29273;49.962;9.768;2023-05-10T04:52:55;0.10;;;0.10;;
38779;SDS011;29273;49.962;9.768;2023-05-10T04:55:20;0.20;;;0.20;;
38779;SDS011;29273;49.962;9.768;2023-05-10T04:57:46;0.20;;;0.20;;
38779;SDS011;29273;49.962;9.768;2023-05-10T05:00:11;0.20;;;0.20;;
38779;SDS011;29273;49.962;9.768;2023-05-10T05:02:37;0.17;;;0.17;;
38779;SDS011;29273;49.962;9.768;2023-05-10T05:05:02;0.10;;;0.10;;
38779;SDS011;29273;49.962;9.768;2023-05-10T05:07:28;0.43;;;0.10;;
38779;SDS011;29273;49.962;9.768;2023-05-10T05:09:55;0.13;;;0.13;;
38779;SDS011;29273;49.962;9.768;2023-05-10T05:12:21;0.73;;;0.20;;
38779;SDS011;29273;49.962;9.768;2023-05-10T05:14:46;0.20;;;0.20;;
38779;SDS011;29273;49.962;9.768;2023-05-10T05:17:12;0.20;;;0.20;;
38779;SDS011;29273;49.962;9.768;2023-05-10T05:19:37;0.22;;;0.20;;
38779;SDS011;29273;49.962;9.768;2023-05-10T05:22:03;0.47;;;0.20;;
38779;SDS011;29273;49.962;9.768;2023-05-10T05:24:28;0.60;;;0.30;;
38779;SDS011;29273;49.962;9.768;2023-05-10T05:26:54;0.20;;;0.20;;
38779;SDS011;29273;49.962;9.768;2023-05-10T05:29:19;0.10;;;0.10;;
38779;SDS011;29273;49.962;9.768;2023-05-10T05:31:45;0.47;;;0.20;;
38779;SDS011;29273;49.962;9.768;2023-05-10T05:34:10;0.20;;;0.20;;
38779;SDS011;29273;49.962;9.768;2023-05-10T05:36:36;0.40;;;0.20;;
38779;SDS011;29273;49.962;9.768;2023-05-10T05:39:05;0.45;;;0.30;;
38779;SDS011;29273;49.962;9.768;2023-05-10T05:41:31;0.28;;;0.28;;
38779;SDS011;29273;49.962;9.768;2023-05-10T05:43:56;0.35;;;0.30;;
38779;SDS011;29273;49.962;9.768;2023-05-10T05:46:22;0.20;;;0.20;;
38779;SDS011;29273;49.962;9.768;2023-05-10T05:48:47;0.20;;;0.20;;
38779;SDS011;29273;49.962;9.768;2023-05-10T05:51:13;0.40;;;0.20;;
38779;SDS011;29273;49.962;9.768;2023-05-10T05:53:38;0.20;;;0.20;;
38779;SDS011;29273;49.962;9.768;2023-05-10T05:56:04;0.77;;;0.20;;
38779;SDS011;29273;49.962;9.768;2023-05-10T05:58:29;0.40;;;0.20;;
38779;SDS011;29273;49.962;9.768;2023-05-10T06:00:55;0.20;;;0.20;;
38779;SDS011;29273;49.962;9.768;2023-05-10T06:03:20;0.30;;;0.30;;
38779;SDS011;29273;49.962;9.768;2023-05-10T06:05:46;1.30;;;0.40;;
38779;SDS011;29273;49.962;9.768;2023-05-10T06:08:12;1.95;;;0.30;;
38779;SDS011;29273;49.962;9.768;2023-05-10T06:10:37;2.75;;;0.30;;
38779;SDS011;29273;49.962;9.768;2023-05-10T06:13:03;0.35;;;0.30;;
38779;SDS011;29273;49.962;9.768;2023-05-10T06:15:28;0.20;;;0.20;;
38779;SDS011;29273;49.962;9.768;2023-05-10T06:17:54;0.75;;;0.25;;
38779;SDS011;29273;49.962;9.768;2023-05-10T06:20:19;0.20;;;0.20;;
38779;SDS011;29273;49.962;9.768;2023-05-10T06:22:44;0.20;;;0.20;;
38779;SDS011;29273;49.962;9.768;2023-05-10T06:25:10;0.80;;;0.40;;
38779;SDS011;29273;49.962;9.768;2023-05-10T06:27:36;0.20;;;0.20;;
38779;SDS011;29273;49.962;9.768;2023-05-10T06:30:02;0.45;;;0.30;;
38779;SDS011;29273;49.962;9.768;2023-05-10T06:32:30;2.95;;;0.30;;
38779;SDS011;29273;49.962;9.768;2023-05-10T06:34:55;0.30;;;0.30;;
38779;SDS011;29273;49.962;9.768;2023-05-10T06:37:20;2.83;;;0.75;;
38779;SDS011;29273;49.962;9.768;2023-05-10T06:39:46;0.60;;;0.30;;
38779;SDS011;29273;49.962;9.768;2023-05-10T06:42:11;0.40;;;0.40;;
38779;SDS011;29273;49.962;9.768;2023-05-10T06:44:37;1.55;;;0.40;;
38779;SDS011;29273;49.962;9.768;2023-05-10T06:47:02;0.77;;;0.30;;
38779;SDS011;29273;49.962;9.768;2023-05-10T06:49:28;0.63;;;0.40;;
38779;SDS011;29273;49.962;9.768;2023-05-10T06:51:55;0.40;;;0.30;;
38779;SDS011;29273;49.962;9.768;2023-05-10T06:54:20;1.13;;;0.40;;
38779;SDS011;29273;49.962;9.768;2023-05-10T06:56:46;0.40;;;0.40;;
38779;SDS011;29273;49.962;9.768;2023-05-10T06:59:11;0.47;;;0.43;;
38779;SDS011;29273;49.962;9.768;2023-05-10T07:01:38;0.50;;;0.40;;
38779;SDS011;29273;49.962;9.768;2023-05-10T07:04:04;0.45;;;0.40;;
38779;SDS011;29273;49.962;9.768;2023-05-10T07:06:30;0.50;;;0.40;;
38779;SDS011;29273;49.962;9.768;2023-05-10T07:08:55;0.60;;;0.52;;
38779;SDS011;29273;49.962;9.768;2023-05-10T07:11:20;1.08;;;0.40;;
38779;SDS011;29273;49.962;9.768;2023-05-10T07:13:46;0.75;;;0.30;;
38779;SDS011;29273;49.962;9.768;2023-05-10T07:16:11;0.68;;;0.40;;
38779;SDS011;29273;49.962;9.768;2023-05-10T07:18:37;0.68;;;0.47;;
38779;SDS011;29273;49.962;9.768;2023-05-10T07:21:03;0.80;;;0.40;;
38779;SDS011;29273;49.962;9.768;2023-05-10T07:23:28;0.70;;;0.30;;
38779;SDS011;29273;49.962;9.768;2023-05-10T07:25:55;0.75;;;0.52;;
38779;SDS011;29273;49.962;9.768;2023-05-10T07:28:22;0.68;;;0.40;;
38779;SDS011;29273;49.962;9.768;2023-05-10T07:30:49;0.40;;;0.40;;
38779;SDS011;29273;49.962;9.768;2023-05-10T07:33:15;0.50;;;0.50;;
38779;SDS011;29273;49.962;9.768;2023-05-10T07:35:41;1.38;;;0.55;;
38779;SDS011;29273;49.962;9.768;2023-05-10T07:38:07;0.82;;;0.40;;
38779;SDS011;29273;49.962;9.768;2023-05-10T07:40:32;0.93;;;0.50;;
38779;SDS011;29273;49.962;9.768;2023-05-10T07:42:58;0.30;;;0.30;;
38779;SDS011;29273;49.962;9.768;2023-05-10T07:45:25;0.35;;;0.35;;
38779;SDS011;29273;49.962;9.768;2023-05-10T07:47:50;1.67;;;0.47;;
38779;SDS011;29273;49.962;9.768;2023-05-10T07:50:16;0.30;;;0.30;;
38779;SDS011;29273;49.962;9.768;2023-05-10T07:52:41;0.52;;;0.35;;
38779;SDS011;29273;49.962;9.768;2023-05-10T07:55:07;1.52;;;0.40;;
38779;SDS011;29273;49.962;9.768;2023-05-10T07:57:33;0.38;;;0.38;;
38779;SDS011;29273;49.962;9.768;2023-05-10T07:59:59;0.73;;;0.40;;
38779;SDS011;29273;49.962;9.768;2023-05-10T08:02:24;0.57;;;0.50;;
38779;SDS011;29273;49.962;9.768;2023-05-10T08:04:50;0.40;;;0.40;;
38779;SDS011;29273;49.962;9.768;2023-05-10T08:07:16;0.50;;;0.50;;
38779;SDS011;29273;49.962;9.768;2023-05-10T08:09:42;0.88;;;0.50;;
38779;SDS011;29273;49.962;9.768;2023-05-10T08:12:07;0.65;;;0.40;;
38779;SDS011;29273;49.962;9.768;2023-05-10T08:14:33;0.45;;;0.45;;
38779;SDS011;29273;49.962;9.768;2023-05-10T08:16:59;0.85;;;0.50;;
38779;SDS011;29273;49.962;9.768;2023-05-10T08:19:24;1.70;;;0.60;;
38779;SDS011;29273;49.962;9.768;2023-05-10T08:21:49;2.38;;;0.47;;
38779;SDS011;29273;49.962;9.768;2023-05-10T08:24:15;0.73;;;0.50;;
38779;SDS011;29273;49.962;9.768;2023-05-10T08:26:40;0.75;;;0.50;;
38779;SDS011;29273;49.962;9.768;2023-05-10T08:29:06;0.80;;;0.40;;
38779;SDS011;29273;49.962;9.768;2023-05-10T08:31:31;1.73;;;0.70;;
38779;SDS011;29273;49.962;9.768;2023-05-10T08:33:57;1.33;;;0.57;;
38779;SDS011;29273;49.962;9.768;2023-05-10T08:36:22;1.05;;;0.68;;
38779;SDS011;29273;49.962;9.768;2023-05-10T08:38:53;0.82;;;0.55;;
38779;SDS011;29273;49.962;9.768;2023-05-10T08:41:22;1.35;;;0.60;;
38779;SDS011;29273;49.962;9.768;2023-05-10T08:43:51;1.13;;;0.60;;
38779;SDS011;29273;49.962;9.768;2023-05-10T08:46:18;1.00;;;0.68;;
38779;SDS011;29273;49.962;9.768;2023-05-10T08:48:45;1.20;;;0.60;;
38779;SDS011;29273;49.962;9.768;2023-05-10T08:51:23;0.63;;;0.50;;
38779;SDS011;29273;49.962;9.768;2023-05-10T08:53:53;1.05;;;0.60;;
38779;SDS011;29273;49.962;9.768;2023-05-10T08:56:19;1.13;;;0.60;;
38779;SDS011;29273;49.962;9.768;2023-05-10T08:58:45;0.63;;;0.50;;
38779;SDS011;29273;49.962;9.768;2023-05-10T09:01:11;1.50;;;0.50;;
38779;SDS011;29273;49.962;9.768;2023-05-10T09:03:38;0.88;;;0.50;;
38779;SDS011;29273;49.962;9.768;2023-05-10T09:06:04;0.75;;;0.50;;
38779;SDS011;29273;49.962;9.768;2023-05-10T09:08:30;1.23;;;0.43;;
38779;SDS011;29273;49.962;9.768;2023-05-10T09:10:56;1.45;;;0.60;;
38779;SDS011;29273;49.962;9.768;2023-05-10T09:13:22;0.40;;;0.35;;
38779;SDS011;29273;49.962;9.768;2023-05-10T09:15:48;0.63;;;0.38;;
38779;SDS011;29273;49.962;9.768;2023-05-10T09:18:14;1.05;;;0.52;;
38779;SDS011;29273;49.962;9.768;2023-05-10T09:20:40;0.63;;;0.40;;
38779;SDS011;29273;49.962;9.768;2023-05-10T09:23:06;0.82;;;0.60;;
38779;SDS011;29273;49.962;9.768;2023-05-10T09:25:32;0.80;;;0.45;;
38779;SDS011;29273;49.962;9.768;2023-05-10T09:28:00;0.60;;;0.50;;
38779;SDS011;29273;49.962;9.768;2023-05-10T09:30:27;1.23;;;0.40;;
38779;SDS011;29273;49.962;9.768;2023-05-10T09:32:54;0.40;;;0.32;;
38779;SDS011;29273;49.962;9.768;2023-05-10T09:35:22;0.98;;;0.50;;
38779;SDS011;29273;49.962;9.768;2023-05-10T09:37:50;0.82;;;0.50;;
38779;SDS011;29273;49.962;9.768;2023-05-10T09:40:28;1.00;;;0.50;;
38779;SDS011;29273;49.962;9.768;2023-05-10T09:45:27;4.90;;;0.60;;
38779;SDS011;29273;49.962;9.768;2023-05-10T09:47:55;0.32;;;0.32;;
38779;SDS011;29273;49.962;9.768;2023-05-10T09:50:22;2.05;;;0.43;;
38779;SDS011;29273;49.962;9.768;2023-05-10T09:52:51;1.40;;;0.50;;
38779;SDS011;29273;49.962;9.768;2023-05-10T09:55:24;0.57;;;0.50;;
38779;SDS011;29273;49.962;9.768;2023-05-10T09:58:06;0.82;;;0.50;;
38779;SDS011;29273;49.962;9.768;2023-05-10T10:00:42;0.80;;;0.57;;
38779;SDS011;29273;49.962;9.768;2023-05-10T10:03:15;0.50;;;0.45;;
38779;SDS011;29273;49.962;9.768;2023-05-10T10:05:44;1.17;;;0.50;;
38779;SDS011;29273;49.962;9.768;2023-05-10T10:08:12;1.88;;;0.50;;
38779;SDS011;29273;49.962;9.768;2023-05-10T10:10:38;0.60;;;0.40;;
38779;SDS011;29273;49.962;9.768;2023-05-10T10:13:10;0.50;;;0.40;;
38779;SDS011;29273;49.962;9.768;2023-05-10T10:15:35;0.52;;;0.50;;
38779;SDS011;29273;49.962;9.768;2023-05-10T10:18:01;0.47;;;0.32;;
38779;SDS011;29273;49.962;9.768;2023-05-10T10:20:29;0.70;;;0.50;;
38779;SDS011;29273;49.962;9.768;2023-05-10T10:22:54;0.95;;;0.45;;
38779;SDS011;29273;49.962;9.768;2023-05-10T10:25:20;0.95;;;0.50;;
38779;SDS011;29273;49.962;9.768;2023-05-10T10:35:28;0.40;;;0.40;;
38779;SDS011;29273;49.962;9.768;2023-05-10T10:37:55;0.85;;;0.50;;
38779;SDS011;29273;49.962;9.768;2023-05-10T10:40:23;0.45;;;0.45;;
38779;SDS011;29273;49.962;9.768;2023-05-10T10:42:51;0.40;;;0.40;;
38779;SDS011;29273;49.962;9.768;2023-05-10T10:45:17;0.45;;;0.30;;
38779;SDS011;29273;49.962;9.768;2023-05-10T10:47:43;0.73;;;0.40;;
38779;SDS011;29273;49.962;9.768;2023-05-10T10:50:10;0.60;;;0.60;;
38779;SDS011;29273;49.962;9.768;2023-05-10T10:52:41;0.70;;;0.50;;
38779;SDS011;29273;49.962;9.768;2023-05-10T10:55:17;0.70;;;0.60;;
38779;SDS011;29273;49.962;9.768;2023-05-10T11:00:35;0.40;;;0.30;;
38779;SDS011;29273;49.962;9.768;2023-05-10T11:03:04;0.52;;;0.40;;
38779;SDS011;29273;49.962;9.768;2023-05-10T11:13:40;0.40;;;0.40;;
38779;SDS011;29273;49.962;9.768;2023-05-10T11:16:11;0.52;;;0.45;;
38779;SDS011;29273;49.962;9.768;2023-05-10T11:18:38;0.40;;;0.30;;
38779;SDS011;29273;49.962;9.768;2023-05-10T11:21:04;1.08;;;0.45;;
38779;SDS011;29273;49.962;9.768;2023-05-10T11:23:32;0.40;;;0.32;;
38779;SDS011;29273;49.962;9.768;2023-05-10T11:26:07;0.47;;;0.40;;
38779;SDS011;29273;49.962;9.768;2023-05-10T11:28:41;0.50;;;0.30;;
38779;SDS011;29273;49.962;9.768;2023-05-10T11:31:08;0.50;;;0.30;;
38779;SDS011;29273;49.962;9.768;2023-05-10T11:33:46;0.73;;;0.52;;
38779;SDS011;29273;49.962;9.768;2023-05-10T11:36:20;0.73;;;0.40;;
38779;SDS011;29273;49.962;9.768;2023-05-10T11:38:50;0.40;;;0.32;;
38779;SDS011;29273;49.962;9.768;2023-05-10T11:41:17;0.30;;;0.30;;
38779;SDS011;29273;49.962;9.768;2023-05-10T11:43:47;0.40;;;0.40;;
38779;SDS011;29273;49.962;9.768;2023-05-10T11:46:14;1.10;;;0.52;;
38779;SDS011;29273;49.962;9.768;2023-05-10T11:48:41;0.30;;;0.30;;
38779;SDS011;29273;49.962;9.768;2023-05-10T11:51:07;1.27;;;0.30;;
38779;SDS011;29273;49.962;9.768;2023-05-10T11:53:34;0.50;;;0.30;;
38779;SDS011;29273;49.962;9.768;2023-05-10T11:56:07;0.40;;;0.30;;
38779;SDS011;29273;49.962;9.768;2023-05-10T11:58:37;0.35;;;0.30;;
38779;SDS011;29273;49.962;9.768;2023-05-10T12:01:04;0.45;;;0.38;;
38779;SDS011;29273;49.962;9.768;2023-05-10T12:03:31;0.20;;;0.20;;
38779;SDS011;29273;49.962;9.768;2023-05-10T12:05:57;1.67;;;0.40;;
38779;SDS011;29273;49.962;9.768;2023-05-10T12:08:24;0.57;;;0.40;;
38779;SDS011;29273;49.962;9.768;2023-05-10T12:10:51;1.17;;;0.32;;
38779;SDS011;29273;49.962;9.768;2023-05-10T12:13:18;0.30;;;0.20;;
38779;SDS011;29273;49.962;9.768;2023-05-10T12:15:45;0.20;;;0.20;;
38779;SDS011;29273;49.962;9.768;2023-05-10T12:18:11;0.30;;;0.30;;
38779;SDS011;29273;49.962;9.768;2023-05-10T12:20:38;0.82;;;0.40;;
38779;SDS011;29273;49.962;9.768;2023-05-10T12:23:04;0.85;;;0.30;;
38779;SDS011;29273;49.962;9.768;2023-05-10T12:25:31;0.30;;;0.30;;
38779;SDS011;29273;49.962;9.768;2023-05-10T12:27:58;0.32;;;0.20;;
38779;SDS011;29273;49.962;9.768;2023-05-10T12:30:29;1.10;;;0.52;;
38779;SDS011;29273;49.962;9.768;2023-05-10T12:33:07;0.32;;;0.30;;
38779;SDS011;29273;49.962;9.768;2023-05-10T12:35:46;0.63;;;0.30;;
38779;SDS011;29273;49.962;9.768;2023-05-10T12:38:25;0.40;;;0.22;;
38779;SDS011;29273;49.962;9.768;2023-05-10T12:40:57;0.20;;;0.20;;
38779;SDS011;29273;49.962;9.768;2023-05-10T12:43:24;0.90;;;0.25;;
38779;SDS011;29273;49.962;9.768;2023-05-10T12:45:50;1.02;;;0.20;;
38779;SDS011;29273;49.962;9.768;2023-05-10T12:48:15;0.13;;;0.10;;
38779;SDS011;29273;49.962;9.768;2023-05-10T12:50:41;0.13;;;0.13;;
38779;SDS011;29273;49.962;9.768;2023-05-10T12:53:06;0.20;;;0.20;;
38779;SDS011;29273;49.962;9.768;2023-05-10T12:55:32;0.45;;;0.20;;
38779;SDS011;29273;49.962;9.768;2023-05-10T12:57:57;0.20;;;0.20;;
38779;SDS011;29273;49.962;9.768;2023-05-10T13:00:22;0.20;;;0.20;;
38779;SDS011;29273;49.962;9.768;2023-05-10T13:02:48;0.50;;;0.30;;
38779;SDS011;29273;49.962;9.768;2023-05-10T13:05:14;1.15;;;0.40;;
38779;SDS011;29273;49.962;9.768;2023-05-10T13:07:39;0.40;;;0.30;;
38779;SDS011;29273;49.962;9.768;2023-05-10T13:10:05;0.38;;;0.30;;
38779;SDS011;29273;49.962;9.768;2023-05-10T13:12:31;0.30;;;0.30;;
38779;SDS011;29273;49.962;9.768;2023-05-10T13:14:57;0.30;;;0.30;;
38779;SDS011;29273;49.962;9.768;2023-05-10T13:17:22;0.20;;;0.17;;
38779;SDS011;29273;49.962;9.768;2023-05-10T13:19:50;0.85;;;0.30;;
38779;SDS011;29273;49.962;9.768;2023-05-10T13:22:16;0.20;;;0.20;;
38779;SDS011;29273;49.962;9.768;2023-05-10T13:24:41;0.50;;;0.30;;
38779;SDS011;29273;49.962;9.768;2023-05-10T13:27:06;0.20;;;0.20;;
38779;SDS011;29273;49.962;9.768;2023-05-10T13:29:32;0.30;;;0.30;;
38779;SDS011;29273;49.962;9.768;2023-05-10T13:32:00;0.20;;;0.20;;
38779;SDS011;29273;49.962;9.768;2023-05-10T13:34:26;0.93;;;0.22;;
38779;SDS011;29273;49.962;9.768;2023-05-10T13:36:52;0.20;;;0.20;;
38779;SDS011;29273;49.962;9.768;2023-05-10T13:39:19;0.28;;;0.28;;
38779;SDS011;29273;49.962;9.768;2023-05-10T13:41:45;0.28;;;0.20;;
38779;SDS011;29273;49.962;9.768;2023-05-10T13:44:11;0.30;;;0.20;;
38779;SDS011;29273;49.962;9.768;2023-05-10T13:46:38;0.77;;;0.28;;
38779;SDS011;29273;49.962;9.768;2023-05-10T13:49:04;0.77;;;0.40;;
38779;SDS011;29273;49.962;9.768;2023-05-10T13:51:29;0.30;;;0.20;;
38779;SDS011;29273;49.962;9.768;2023-05-10T13:53:57;0.77;;;0.40;;
38779;SDS011;29273;49.962;9.768;2023-05-10T13:56:22;0.65;;;0.30;;
38779;SDS011;29273;49.962;9.768;2023-05-10T13:58:48;0.40;;;0.20;;
38779;SDS011;29273;49.962;9.768;2023-05-10T14:01:14;0.50;;;0.30;;
38779;SDS011;29273;49.962;9.768;2023-05-10T14:03:40;1.10;;;0.57;;
38779;SDS011;29273;49.962;9.768;2023-05-10T14:06:05;0.30;;;0.30;;
38779;SDS011;29273;49.962;9.768;2023-05-10T14:08:32;0.60;;;0.30;;
38779;SDS011;29273;49.962;9.768;2023-05-10T14:10:59;0.30;;;0.30;;
38779;SDS011;29273;49.962;9.768;2023-05-10T14:13:24;0.20;;;0.20;;
38779;SDS011;29273;49.962;9.768;2023-05-10T14:15:50;0.73;;;0.40;;
38779;SDS011;29273;49.962;9.768;2023-05-10T14:18:16;0.20;;;0.20;;
38779;SDS011;29273;49.962;9.768;2023-05-10T14:20:41;0.63;;;0.30;;
38779;SDS011;29273;49.962;9.768;2023-05-10T14:23:06;0.30;;;0.30;;
38779;SDS011;29273;49.962;9.768;2023-05-10T14:25:32;0.30;;;0.20;;
38779;SDS011;29273;49.962;9.768;2023-05-10T14:27:58;0.45;;;0.25;;
38779;SDS011;29273;49.962;9.768;2023-05-10T14:30:23;0.60;;;0.20;;
38779;SDS011;29273;49.962;9.768;2023-05-10T14:32:49;0.32;;;0.28;;
38779;SDS011;29273;49.962;9.768;2023-05-10T14:35:14;0.57;;;0.20;;
38779;SDS011;29273;49.962;9.768;2023-05-10T14:37:40;0.40;;;0.30;;
38779;SDS011;29273;49.962;9.768;2023-05-10T14:40:05;1.10;;;0.25;;
38779;SDS011;29273;49.962;9.768;2023-05-10T14:42:32;0.20;;;0.20;;
38779;SDS011;29273;49.962;9.768;2023-05-10T14:44:57;0.68;;;0.28;;
38779;SDS011;29273;49.962;9.768;2023-05-10T14:47:23;0.20;;;0.20;;
38779;SDS011;29273;49.962;9.768;2023-05-10T14:49:48;0.20;;;0.20;;
38779;SDS011;29273;49.962;9.768;2023-05-10T14:52:14;0.43;;;0.20;;
38779;SDS011;29273;49.962;9.768;2023-05-10T14:54:39;0.70;;;0.30;;
38779;SDS011;29273;49.962;9.768;2023-05-10T14:57:06;0.82;;;0.25;;
38779;SDS011;29273;49.962;9.768;2023-05-10T14:59:32;0.30;;;0.22;;
38779;SDS011;29273;49.962;9.768;2023-05-10T15:01:57;1.75;;;0.30;;
38779;SDS011;29273;49.962;9.768;2023-05-10T15:04:23;0.30;;;0.22;;
38779;SDS011;29273;49.962;9.768;2023-05-10T15:06:48;0.17;;;0.17;;
38779;SDS011;29273;49.962;9.768;2023-05-10T15:09:14;0.70;;;0.20;;
38779;SDS011;29273;49.962;9.768;2023-05-10T15:11:40;0.68;;;0.30;;
38779;SDS011;29273;49.962;9.768;2023-05-10T15:14:06;0.60;;;0.20;;
38779;SDS011;29273;49.962;9.768;2023-05-10T15:16:31;0.32;;;0.20;;
38779;SDS011;29273;49.962;9.768;2023-05-10T15:18:57;1.05;;;0.30;;
38779;SDS011;29273;49.962;9.768;2023-05-10T15:21:22;0.30;;;0.20;;
38779;SDS011;29273;49.962;9.768;2023-05-10T15:23:47;0.45;;;0.20;;
38779;SDS011;29273;49.962;9.768;2023-05-10T15:26:13;1.02;;;0.20;;
38779;SDS011;29273;49.962;9.768;2023-05-10T15:28:39;0.20;;;0.20;;